createdAt,value
2023-03-23T15:57:51.539Z,99796.59
2023-03-23T16:00:21.643Z,99787.63
2023-03-23T16:02:55.448Z,99793.13
2023-03-23T16:05:24.116Z,99786.84
2023-03-23T16:07:53.681Z,99783.53
2023-03-23T16:10:24.541Z,99782.22
2023-03-23T16:12:56.948Z,99799.16
2023-03-23T16:15:25.965Z,99789.38
2023-03-23T16:17:54.762Z,99798.50
2023-03-23T16:20:25.234Z,99772.75
2023-03-23T16:22:54.579Z,99775.25
2023-03-23T16:25:22.726Z,99776.69
2023-03-23T16:27:52.668Z,99781.84
2023-03-23T16:30:24.948Z,99777.50
2023-03-23T16:32:55.406Z,99782.41
2023-03-23T16:35:25.206Z,99782.19
2023-03-23T16:38:08.131Z,99787.56
2023-03-23T16:40:38.533Z,99786.06
2023-03-23T16:43:09.028Z,99789.41
2023-03-23T16:45:43.306Z,99784.22
2023-03-23T16:48:15.820Z,99782.75
2023-03-23T16:50:47.321Z,99787.22
2023-03-23T16:53:16.357Z,99788.25
2023-03-23T16:55:47.943Z,99796.06
2023-03-23T16:58:17.816Z,99786.31
2023-03-23T17:00:49.995Z,99779.78
2023-03-23T17:03:21.288Z,99775.31
2023-03-23T17:05:54.399Z,99771.56
2023-03-23T17:08:22.733Z,99781.31
2023-03-23T17:10:51.196Z,99789.31
2023-03-23T17:13:20.711Z,99788.31
2023-03-23T17:15:53.938Z,99791.44
2023-03-23T17:18:22.467Z,99786.81
2023-03-23T17:20:50.592Z,99782.66
2023-03-23T17:23:19.009Z,99797.78
2023-03-23T17:25:48.381Z,99786.16
2023-03-23T17:28:17.956Z,99776.53
2023-03-23T17:30:47.948Z,99772.41
2023-03-23T17:33:17.499Z,99792.28
2023-03-23T17:35:51.621Z,99788.47
2023-03-23T17:38:20.438Z,99775.53
2023-03-23T17:40:48.804Z,99768.75
2023-03-23T17:43:19.408Z,99779.81
2023-03-23T17:45:48.153Z,99781.31
2023-03-23T17:48:17.792Z,99778.84
2023-03-23T17:50:48.190Z,99789.97
2023-03-23T17:53:18.847Z,99785.81
2023-03-23T17:55:49.501Z,99780.81
2023-03-23T17:58:17.529Z,99789.47
2023-03-23T18:00:46.947Z,99786.97
2023-03-23T18:03:18.795Z,99792.78
2023-03-23T18:05:51.055Z,99791.13
2023-03-23T18:08:21.664Z,99791.28
2023-03-23T18:10:51.664Z,99797.25
2023-03-23T18:13:19.479Z,99795.75
2023-03-23T18:15:48.077Z,99792.44
2023-03-23T18:18:19.639Z,99793.72
2023-03-23T18:20:47.847Z,99793.22
2023-03-23T18:23:15.972Z,99803.34
2023-03-23T18:25:44.122Z,99795.38
2023-03-23T18:28:12.379Z,99798.72
2023-03-23T18:30:40.285Z,99802.53
2023-03-23T18:33:08.281Z,99796.88
2023-03-23T18:35:39.875Z,99797.19
2023-03-23T18:38:08.197Z,99786.25
2023-03-23T18:40:37.752Z,99785.41
2023-03-23T18:43:06.050Z,99787.72
2023-03-23T18:45:34.331Z,99786.91
2023-03-23T18:48:02.276Z,99785.59
2023-03-23T18:50:30.414Z,99781.75
2023-03-23T18:52:59.788Z,99781.44
2023-03-23T18:55:28.003Z,99780.78
2023-03-23T18:58:00.193Z,99780.28
2023-03-23T19:00:29.550Z,99771.31
2023-03-23T19:02:57.944Z,99777.94
2023-03-23T19:05:26.660Z,99776.44
2023-03-23T19:07:55.299Z,99783.72
2023-03-23T19:10:26.385Z,99780.06
2023-03-23T19:12:54.888Z,99788.38
2023-03-23T19:15:24.965Z,99779.78
2023-03-23T19:17:55.869Z,99789.38
2023-03-23T19:20:57.290Z,99773.97
2023-03-23T19:23:12.861Z,99779.09
2023-03-23T19:25:43.142Z,99768.69
2023-03-23T19:29:03.223Z,99770.50
2023-03-23T19:31:01.194Z,99776.00
2023-03-23T19:33:29.274Z,99776.66
2023-03-23T19:36:07.354Z,99769.84
2023-03-23T19:38:42.101Z,99770.84
2023-03-23T19:41:11.922Z,99785.47
2023-03-23T19:43:43.087Z,99782.47
2023-03-23T19:46:11.764Z,99773.84
2023-03-23T19:48:40.140Z,99783.09
2023-03-23T19:51:12.982Z,99770.19
2023-03-23T19:53:42.149Z,99768.19
2023-03-23T19:56:14.191Z,99774.63
2023-03-23T19:58:42.314Z,99765.34
2023-03-23T20:01:11.136Z,99767.19
2023-03-23T20:03:39.395Z,99764.19
2023-03-23T20:06:11.422Z,99764.03
2023-03-23T20:08:43.673Z,99761.75
2023-03-23T20:11:15.484Z,99755.09
2023-03-23T20:13:44.792Z,99753.78
2023-03-23T20:16:13.013Z,99749.00
2023-03-23T20:18:43.188Z,99746.34
2023-03-23T20:21:19.735Z,99743.00
2023-03-23T20:23:51.483Z,99739.03
2023-03-23T20:26:23.265Z,99732.88
2023-03-23T20:28:52.543Z,99735.03
2023-03-23T20:31:24.342Z,99733.06
2023-03-23T20:34:01.887Z,99728.75
2023-03-23T20:36:35.703Z,99726.94
2023-03-23T20:39:07.116Z,99720.31
2023-03-23T20:41:38.582Z,99725.28
2023-03-23T20:44:15.712Z,99722.13
2023-03-23T20:46:44.919Z,99715.69
2023-03-23T20:49:15.993Z,99712.53
2023-03-23T20:51:46.383Z,99713.34
2023-03-23T20:54:17.517Z,99707.38
2023-03-23T20:56:47.721Z,99704.72
2023-03-23T20:59:17.451Z,99696.44
2023-03-23T21:01:50.555Z,99700.59
2023-03-23T21:04:21.799Z,99693.63
2023-03-23T21:06:51.715Z,99694.78
2023-03-23T21:09:22.380Z,99691.63
2023-03-23T21:11:52.062Z,99689.63
2023-03-23T21:14:20.197Z,99687.13
2023-03-23T21:16:48.047Z,99682.97
2023-03-23T21:19:17.082Z,99682.63
2023-03-23T21:21:55.796Z,99671.03
2023-03-23T21:24:28.009Z,99671.53
2023-03-23T21:26:59.658Z,99664.25
2023-03-23T21:29:30.769Z,99663.44
2023-03-23T21:32:08.148Z,99651.50
2023-03-23T21:34:37.491Z,99659.63
2023-03-23T21:37:05.650Z,99649.84
2023-03-23T21:39:35.659Z,99654.63
2023-03-23T21:42:06.850Z,99650.69
2023-03-23T21:44:35.793Z,99654.63
2023-03-23T21:47:10.770Z,99651.19
2023-03-23T21:49:40.716Z,99642.38
2023-03-23T21:52:09.547Z,99649.84
2023-03-23T21:54:41.256Z,99642.38
2023-03-23T21:57:11.802Z,99642.72
2023-03-23T21:59:39.880Z,99647.31
2023-03-23T22:02:08.868Z,99641.06
2023-03-23T22:04:38.887Z,99631.78
2023-03-23T22:07:08.124Z,99634.28
2023-03-23T22:09:36.574Z,99627.31
2023-03-23T22:12:07.879Z,99625.00
2023-03-23T22:14:38.979Z,99624.19
2023-03-23T22:17:09.068Z,99609.28
2023-03-23T22:19:40.186Z,99606.13
2023-03-23T22:22:11.784Z,99605.28
2023-03-23T22:24:40.552Z,99604.16
2023-03-23T22:27:11.364Z,99606.44
2023-03-23T22:29:41.508Z,99603.81
2023-03-23T22:32:11.507Z,99598.19
2023-03-23T22:34:39.665Z,99600.50
2023-03-23T22:37:08.272Z,99600.00
2023-03-23T22:39:37.088Z,99598.50
2023-03-23T22:42:07.028Z,99598.00
2023-03-23T22:44:36.355Z,99598.50
2023-03-23T22:47:07.563Z,99596.84
2023-03-23T22:49:35.674Z,99593.22
2023-03-23T22:52:05.438Z,99601.34
2023-03-23T22:54:34.853Z,99590.56
2023-03-23T22:57:03.690Z,99592.56
2023-03-23T22:59:31.900Z,99587.41
2023-03-23T23:02:01.681Z,99593.56
2023-03-23T23:04:35.597Z,99594.06
2023-03-23T23:07:12.983Z,99585.94
2023-03-23T23:09:42.712Z,99588.63
2023-03-23T23:12:17.075Z,99575.84
2023-03-23T23:14:48.965Z,99569.72
2023-03-23T23:17:17.378Z,99571.84
2023-03-23T23:19:46.977Z,99565.19
2023-03-23T23:22:19.268Z,99559.75
2023-03-23T23:24:48.283Z,99585.94
2023-03-23T23:27:18.045Z,99584.75
2023-03-23T23:29:47.185Z,99587.91
2023-03-23T23:32:15.568Z,99586.44
2023-03-23T23:34:44.527Z,99577.50
2023-03-23T23:37:14.414Z,99570.00
2023-03-23T23:39:46.880Z,99570.72
2023-03-23T23:42:15.598Z,99563.25
2023-03-23T23:44:46.450Z,99569.56
2023-03-23T23:47:15.394Z,99567.41
2023-03-23T23:49:44.118Z,99565.78
2023-03-23T23:52:13.687Z,99567.41
2023-03-23T23:54:47.117Z,99563.75
2023-03-23T23:57:17.032Z,99574.00
2023-03-23T23:59:46.189Z,99561.75
